sensor_id;sensor_type;location;lat;lon;timestamp;pressure;altitude;pressure_sealevel;temperature
63689;BMP280;54895;40.928;14.480;2023-07-02T00:01:08;100703.81;;;29.81
63689;BMP280;54895;40.928;14.480;2023-07-02T00:03:35;100696.63;;;29.97
63689;BMP280;54895;40.928;14.480;2023-07-02T00:06:01;100708.63;;;30.14
63689;BMP280;54895;40.928;14.480;2023-07-02T00:08:28;100699.69;;;30.13
63689;BMP280;54895;40.928;14.480;2023-07-02T00:10:54;100694.16;;;30.11
63689;BMP280;54895;40.928;14.480;2023-07-02T00:13:21;100705.28;;;30.19
63689;BMP280;54895;40.928;14.480;2023-07-02T00:15:47;100697.19;;;30.25
63689;BMP280;54895;40.928;14.480;2023-07-02T00:22:01;100696.75;;;30.03
63689;BMP280;54895;40.928;14.480;2023-07-02T00:24:28;100692.31;;;30.22
63689;BMP280;54895;40.928;14.480;2023-07-02T00:26:55;100687.97;;;30.46
63689;BMP280;54895;40.928;14.480;2023-07-02T00:29:21;100682.69;;;30.19
63689;BMP280;54895;40.928;14.480;2023-07-02T00:31:48;100680.38;;;30.07
63689;BMP280;54895;40.928;14.480;2023-07-02T00:34:14;100686.31;;;30.31
63689;BMP280;54895;40.928;14.480;2023-07-02T00:39:26;100684.00;;;30.55
63689;BMP280;54895;40.928;14.480;2023-07-02T00:41:52;100684.91;;;30.67
63689;BMP280;54895;40.928;14.480;2023-07-02T00:44:19;100689.09;;;30.70
63689;BMP280;54895;40.928;14.480;2023-07-02T00:46:45;100691.41;;;30.86
63689;BMP280;54895;40.928;14.480;2023-07-02T00:49:12;100689.38;;;30.47
63689;BMP280;54895;40.928;14.480;2023-07-02T00:51:38;100688.81;;;30.54
63689;BMP280;54895;40.928;14.480;2023-07-02T00:54:05;100680.25;;;30.76
63689;BMP280;54895;40.928;14.480;2023-07-02T00:56:33;100691.41;;;30.84
63689;BMP280;54895;40.928;14.480;2023-07-02T00:58:59;100685.81;;;30.80
63689;BMP280;54895;40.928;14.480;2023-07-02T01:01:27;100690.13;;;30.93
63689;BMP280;54895;40.928;14.480;2023-07-02T01:04:02;100679.81;;;30.91
63689;BMP280;54895;40.928;14.480;2023-07-02T01:06:32;100692.84;;;30.89
63689;BMP280;54895;40.928;14.480;2023-07-02T01:09:02;100690.13;;;30.91
63689;BMP280;54895;40.928;14.480;2023-07-02T01:14:05;100683.31;;;30.94
63689;BMP280;54895;40.928;14.480;2023-07-02T01:16:36;100684.84;;;31.05
63689;BMP280;54895;40.928;14.480;2023-07-02T01:22:13;100686.13;;;31.00
63689;BMP280;54895;40.928;14.480;2023-07-02T01:24:40;100678.72;;;31.08
63689;BMP280;54895;40.928;14.480;2023-07-02T01:27:07;100683.25;;;30.90
63689;BMP280;54895;40.928;14.480;2023-07-02T01:29:34;100683.31;;;30.94
63689;BMP280;54895;40.928;14.480;2023-07-02T01:32:03;100677.88;;;30.98
63689;BMP280;54895;40.928;14.480;2023-07-02T01:34:30;100678.31;;;30.82
63689;BMP280;54895;40.928;14.480;2023-07-02T01:36:56;100679.19;;;30.95
63689;BMP280;54895;40.928;14.480;2023-07-02T01:39:23;100677.00;;;30.85
63689;BMP280;54895;40.928;14.480;2023-07-02T01:41:55;100674.03;;;30.73
63689;BMP280;54895;40.928;14.480;2023-07-02T01:44:22;100673.84;;;30.63
63689;BMP280;54895;40.928;14.480;2023-07-02T01:46:48;100670.78;;;30.85
63689;BMP280;54895;40.928;14.480;2023-07-02T01:49:16;100674.31;;;30.89
63689;BMP280;54895;40.928;14.480;2023-07-02T01:51:49;100676.13;;;30.75
63689;BMP280;54895;40.928;14.480;2023-07-02T01:54:17;100677.47;;;30.74
63689;BMP280;54895;40.928;14.480;2023-07-02T01:56:43;100678.50;;;30.92
63689;BMP280;54895;40.928;14.480;2023-07-02T01:59:09;100677.63;;;30.82
63689;BMP280;54895;40.928;14.480;2023-07-02T02:01:37;100681.50;;;30.69
63689;BMP280;54895;40.928;14.480;2023-07-02T02:04:07;100678.81;;;30.71
63689;BMP280;54895;40.928;14.480;2023-07-02T02:06:34;100664.31;;;30.68
63689;BMP280;54895;40.928;14.480;2023-07-02T02:09:01;100675.41;;;30.72
63689;BMP280;54895;40.928;14.480;2023-07-02T02:11:31;100675.06;;;30.94
63689;BMP280;54895;40.928;14.480;2023-07-02T02:13:58;100670.91;;;30.93
63689;BMP280;54895;40.928;14.480;2023-07-02T02:16:24;100671.94;;;31.13
63689;BMP280;54895;40.928;14.480;2023-07-02T02:22:56;100675.63;;;30.88
63689;BMP280;54895;40.928;14.480;2023-07-02T02:25:22;100678.66;;;30.63
63689;BMP280;54895;40.928;14.480;2023-07-02T02:27:49;100675.00;;;30.51
63689;BMP280;54895;40.928;14.480;2023-07-02T02:30:15;100676.75;;;29.97
63689;BMP280;54895;40.928;14.480;2023-07-02T02:32:42;100673.44;;;29.69
63689;BMP280;54895;40.928;14.480;2023-07-02T02:35:11;100670.19;;;29.78
63689;BMP280;54895;40.928;14.480;2023-07-02T02:37:39;100662.31;;;29.96
63689;BMP280;54895;40.928;14.480;2023-07-02T02:40:07;100659.72;;;29.71
63689;BMP280;54895;40.928;14.480;2023-07-02T02:42:36;100659.72;;;29.40
63689;BMP280;54895;40.928;14.480;2023-07-02T02:45:05;100657.50;;;29.63
63689;BMP280;54895;40.928;14.480;2023-07-02T02:47:31;100650.84;;;29.72
63689;BMP280;54895;40.928;14.480;2023-07-02T02:49:59;100653.38;;;29.62
63689;BMP280;54895;40.928;14.480;2023-07-02T02:52:25;100642.19;;;29.52
63689;BMP280;54895;40.928;14.480;2023-07-02T02:54:52;100644.19;;;29.50
63689;BMP280;54895;40.928;14.480;2023-07-02T02:57:21;100654.00;;;28.73
63689;BMP280;54895;40.928;14.480;2023-07-02T02:59:47;100652.09;;;28.52
63689;BMP280;54895;40.928;14.480;2023-07-02T03:02:14;100654.66;;;28.46
63689;BMP280;54895;40.928;14.480;2023-07-02T03:04:40;100657.94;;;28.66
63689;BMP280;54895;40.928;14.480;2023-07-02T03:07:07;100658.41;;;28.84
63689;BMP280;54895;40.928;14.480;2023-07-02T03:09:33;100661.56;;;29.02
63689;BMP280;54895;40.928;14.480;2023-07-02T03:12:00;100664.66;;;29.16
63689;BMP280;54895;40.928;14.480;2023-07-02T03:14:26;100675.03;;;29.19
63689;BMP280;54895;40.928;14.480;2023-07-02T03:16:53;100674.59;;;29.31
63689;BMP280;54895;40.928;14.480;2023-07-02T03:22:31;100673.28;;;29.34
63689;BMP280;54895;40.928;14.480;2023-07-02T03:24:58;100673.91;;;29.30
63689;BMP280;54895;40.928;14.480;2023-07-02T03:27:24;100670.88;;;29.48
63689;BMP280;54895;40.928;14.480;2023-07-02T03:29:53;100674.31;;;29.48
63689;BMP280;54895;40.928;14.480;2023-07-02T03:32:19;100672.63;;;29.64
63689;BMP280;54895;40.928;14.480;2023-07-02T03:34:46;100671.91;;;29.64
63689;BMP280;54895;40.928;14.480;2023-07-02T03:37:12;100669.84;;;29.62
63689;BMP280;54895;40.928;14.480;2023-07-02T03:39:39;100678.25;;;29.72
63689;BMP280;54895;40.928;14.480;2023-07-02T03:42:05;100693.06;;;29.59
63689;BMP280;54895;40.928;14.480;2023-07-02T03:44:31;100695.16;;;29.61
63689;BMP280;54895;40.928;14.480;2023-07-02T03:46:58;100680.28;;;29.70
63689;BMP280;54895;40.928;14.480;2023-07-02T03:49:24;100686.16;;;29.88
63689;BMP280;54895;40.928;14.480;2023-07-02T03:51:51;100685.41;;;29.85
63689;BMP280;54895;40.928;14.480;2023-07-02T03:54:17;100691.06;;;29.93
63689;BMP280;54895;40.928;14.480;2023-07-02T03:56:44;100695.59;;;29.81
63689;BMP280;54895;40.928;14.480;2023-07-02T03:59:10;100698.84;;;29.71
63689;BMP280;54895;40.928;14.480;2023-07-02T04:01:36;100699.88;;;29.88
63689;BMP280;54895;40.928;14.480;2023-07-02T04:04:03;100698.88;;;30.07
63689;BMP280;54895;40.928;14.480;2023-07-02T04:06:29;100705.16;;;30.11
63689;BMP280;54895;40.928;14.480;2023-07-02T04:08:55;100706.44;;;30.08
63689;BMP280;54895;40.928;14.480;2023-07-02T04:11:22;100711.94;;;30.08
63689;BMP280;54895;40.928;14.480;2023-07-02T04:13:48;100705.50;;;30.27
63689;BMP280;54895;40.928;14.480;2023-07-02T04:16:14;100716.47;;;30.27
63689;BMP280;54895;40.928;14.480;2023-07-02T04:22:28;100730.25;;;30.31
63689;BMP280;54895;40.928;14.480;2023-07-02T04:24:55;100727.50;;;30.31
63689;BMP280;54895;40.928;14.480;2023-07-02T04:27:21;100724.88;;;30.04
63689;BMP280;54895;40.928;14.480;2023-07-02T04:29:49;100723.31;;;30.28
63689;BMP280;54895;40.928;14.480;2023-07-02T04:32:15;100731.78;;;30.05
63689;BMP280;54895;40.928;14.480;2023-07-02T04:34:41;100726.88;;;30.35
63689;BMP280;54895;40.928;14.480;2023-07-02T04:37:09;100730.84;;;30.28
63689;BMP280;54895;40.928;14.480;2023-07-02T04:39:35;100728.44;;;30.44
63689;BMP280;54895;40.928;14.480;2023-07-02T04:42:02;100738.94;;;30.55
63689;BMP280;54895;40.928;14.480;2023-07-02T04:44:29;100736.06;;;30.47
63689;BMP280;54895;40.928;14.480;2023-07-02T04:47:00;100730.47;;;30.43
63689;BMP280;54895;40.928;14.480;2023-07-02T04:49:27;100732.41;;;30.37
63689;BMP280;54895;40.928;14.480;2023-07-02T04:51:54;100744.22;;;30.43
63689;BMP280;54895;40.928;14.480;2023-07-02T04:54:21;100733.38;;;30.51
63689;BMP280;54895;40.928;14.480;2023-07-02T04:56:48;100739.31;;;30.77
63689;BMP280;54895;40.928;14.480;2023-07-02T04:59:14;100745.22;;;30.99
63689;BMP280;54895;40.928;14.480;2023-07-02T05:01:42;100750.81;;;31.07
63689;BMP280;54895;40.928;14.480;2023-07-02T05:04:10;100750.41;;;31.22
63689;BMP280;54895;40.928;14.480;2023-07-02T05:06:37;100744.03;;;31.12
63689;BMP280;54895;40.928;14.480;2023-07-02T05:09:04;100746.25;;;31.19
63689;BMP280;54895;40.928;14.480;2023-07-02T05:11:30;100744.16;;;31.20
63689;BMP280;54895;40.928;14.480;2023-07-02T05:13:57;100746.00;;;31.03
63689;BMP280;54895;40.928;14.480;2023-07-02T05:16:23;100754.84;;;31.00
63689;BMP280;54895;40.928;14.480;2023-07-02T05:22:42;100762.03;;;31.19
63689;BMP280;54895;40.928;14.480;2023-07-02T05:25:09;100757.59;;;31.00
63689;BMP280;54895;40.928;14.480;2023-07-02T05:27:35;100755.81;;;31.16
63689;BMP280;54895;40.928;14.480;2023-07-02T05:30:02;100758.00;;;31.24
63689;BMP280;54895;40.928;14.480;2023-07-02T05:32:30;100763.16;;;31.47
63689;BMP280;54895;40.928;14.480;2023-07-02T05:34:56;100772.34;;;31.61
63689;BMP280;54895;40.928;14.480;2023-07-02T05:37:23;100769.22;;;31.87
63689;BMP280;54895;40.928;14.480;2023-07-02T05:39:50;100778.50;;;32.11
63689;BMP280;54895;40.928;14.480;2023-07-02T05:42:17;100781.59;;;32.43
63689;BMP280;54895;40.928;14.480;2023-07-02T05:44:44;100776.66;;;32.32
63689;BMP280;54895;40.928;14.480;2023-07-02T05:47:11;100785.31;;;32.06
63689;BMP280;54895;40.928;14.480;2023-07-02T05:49:37;100786.78;;;32.11
63689;BMP280;54895;40.928;14.480;2023-07-02T05:52:04;100785.69;;;32.38
63689;BMP280;54895;40.928;14.480;2023-07-02T05:54:31;100783.19;;;32.62
63689;BMP280;54895;40.928;14.480;2023-07-02T05:56:58;100782.06;;;32.89
63689;BMP280;54895;40.928;14.480;2023-07-02T05:59:25;100788.78;;;32.72
63689;BMP280;54895;40.928;14.480;2023-07-02T06:01:52;100790.47;;;33.05
63689;BMP280;54895;40.928;14.480;2023-07-02T06:04:18;100793.34;;;33.17
63689;BMP280;54895;40.928;14.480;2023-07-02T06:06:45;100793.22;;;33.03
63689;BMP280;54895;40.928;14.480;2023-07-02T06:09:12;100797.00;;;33.49
63689;BMP280;54895;40.928;14.480;2023-07-02T06:11:39;100805.41;;;33.71
63689;BMP280;54895;40.928;14.480;2023-07-02T06:14:06;100806.22;;;33.99
63689;BMP280;54895;40.928;14.480;2023-07-02T06:16:33;100814.28;;;33.55
63689;BMP280;54895;40.928;14.480;2023-07-02T06:22:44;100818.63;;;33.88
63689;BMP280;54895;40.928;14.480;2023-07-02T06:25:13;100811.72;;;33.83
63689;BMP280;54895;40.928;14.480;2023-07-02T06:27:39;100814.56;;;34.05
63689;BMP280;54895;40.928;14.480;2023-07-02T06:30:06;100819.97;;;33.85
63689;BMP280;54895;40.928;14.480;2023-07-02T06:32:33;100815.88;;;33.94
63689;BMP280;54895;40.928;14.480;2023-07-02T06:34:59;100817.34;;;34.23
63689;BMP280;54895;40.928;14.480;2023-07-02T06:37:26;100814.59;;;34.19
63689;BMP280;54895;40.928;14.480;2023-07-02T06:39:52;100817.38;;;34.25
63689;BMP280;54895;40.928;14.480;2023-07-02T06:42:19;100823.63;;;34.31
63689;BMP280;54895;40.928;14.480;2023-07-02T06:44:45;100819.94;;;33.73
63689;BMP280;54895;40.928;14.480;2023-07-02T06:47:12;100824.00;;;33.60
63689;BMP280;54895;40.928;14.480;2023-07-02T06:49:38;100821.44;;;34.06
63689;BMP280;54895;40.928;14.480;2023-07-02T06:52:04;100815.31;;;34.33
63689;BMP280;54895;40.928;14.480;2023-07-02T06:54:31;100820.25;;;34.77
63689;BMP280;54895;40.928;14.480;2023-07-02T06:56:57;100818.84;;;34.76
63689;BMP280;54895;40.928;14.480;2023-07-02T06:59:24;100817.47;;;34.69
63689;BMP280;54895;40.928;14.480;2023-07-02T07:01:50;100813.34;;;34.93
63689;BMP280;54895;40.928;14.480;2023-07-02T07:04:17;100824.41;;;35.07
63689;BMP280;54895;40.928;14.480;2023-07-02T07:06:43;100818.81;;;35.53
63689;BMP280;54895;40.928;14.480;2023-07-02T07:09:10;100822.94;;;35.54
63689;BMP280;54895;40.928;14.480;2023-07-02T07:11:36;100816.00;;;35.63
63689;BMP280;54895;40.928;14.480;2023-07-02T07:14:03;100831.25;;;35.44
63689;BMP280;54895;40.928;14.480;2023-07-02T07:16:29;100836.78;;;35.44
63689;BMP280;54895;40.928;14.480;2023-07-02T07:22:39;100843.69;;;35.49
63689;BMP280;54895;40.928;14.480;2023-07-02T07:25:07;100838.16;;;35.63
63689;BMP280;54895;40.928;14.480;2023-07-02T07:27:33;100840.31;;;34.97
63689;BMP280;54895;40.928;14.480;2023-07-02T07:29:59;100845.78;;;34.41
63689;BMP280;54895;40.928;14.480;2023-07-02T07:32:26;100840.78;;;34.08
63689;BMP280;54895;40.928;14.480;2023-07-02T07:34:53;100845.69;;;34.19
63689;BMP280;54895;40.928;14.480;2023-07-02T07:37:19;100849.25;;;34.58
63689;BMP280;54895;40.928;14.480;2023-07-02T07:39:46;100850.56;;;34.39
63689;BMP280;54895;40.928;14.480;2023-07-02T07:42:14;100852.66;;;34.54
63689;BMP280;54895;40.928;14.480;2023-07-02T07:44:41;100853.44;;;35.16
63689;BMP280;54895;40.928;14.480;2023-07-02T07:47:07;100860.34;;;35.33
63689;BMP280;54895;40.928;14.480;2023-07-02T07:49:34;100846.34;;;35.91
63689;BMP280;54895;40.928;14.480;2023-07-02T07:52:00;100856.13;;;34.59
63689;BMP280;54895;40.928;14.480;2023-07-02T07:54:27;100854.13;;;34.77
63689;BMP280;54895;40.928;14.480;2023-07-02T07:56:53;100844.38;;;34.42
63689;BMP280;54895;40.928;14.480;2023-07-02T07:59:20;100847.66;;;34.01
63689;BMP280;54895;40.928;14.480;2023-07-02T08:01:46;100851.16;;;34.09
63689;BMP280;54895;40.928;14.480;2023-07-02T08:04:12;100850.38;;;33.83
63689;BMP280;54895;40.928;14.480;2023-07-02T08:06:39;100850.50;;;34.19
63689;BMP280;54895;40.928;14.480;2023-07-02T08:09:05;100849.81;;;34.18
63689;BMP280;54895;40.928;14.480;2023-07-02T08:11:32;100850.66;;;35.30
63689;BMP280;54895;40.928;14.480;2023-07-02T08:14:00;100839.34;;;36.06
63689;BMP280;54895;40.928;14.480;2023-07-02T08:16:27;100847.38;;;36.59
63689;BMP280;54895;40.928;14.480;2023-07-02T08:22:58;100848.69;;;36.62
63689;BMP280;54895;40.928;14.480;2023-07-02T08:25:24;100852.44;;;36.19
63689;BMP280;54895;40.928;14.480;2023-07-02T08:27:53;100842.84;;;36.00
63689;BMP280;54895;40.928;14.480;2023-07-02T08:30:20;100854.31;;;36.56
63689;BMP280;54895;40.928;14.480;2023-07-02T08:32:46;100842.03;;;36.30
63689;BMP280;54895;40.928;14.480;2023-07-02T08:35:14;100848.84;;;36.44
63689;BMP280;54895;40.928;14.480;2023-07-02T08:37:40;100844.72;;;36.40
63689;BMP280;54895;40.928;14.480;2023-07-02T08:40:16;100852.03;;;35.43
63689;BMP280;54895;40.928;14.480;2023-07-02T08:42:45;100855.50;;;35.02
63689;BMP280;54895;40.928;14.480;2023-07-02T08:45:15;100852.03;;;35.35
63689;BMP280;54895;40.928;14.480;2023-07-02T08:47:44;100853.44;;;34.81
63689;BMP280;54895;40.928;14.480;2023-07-02T08:50:14;100858.91;;;35.52
63689;BMP280;54895;40.928;14.480;2023-07-02T08:52:41;100859.34;;;36.24
63689;BMP280;54895;40.928;14.480;2023-07-02T08:55:09;100858.22;;;36.87
63689;BMP280;54895;40.928;14.480;2023-07-02T08:57:35;100869.69;;;37.27
63689;BMP280;54895;40.928;14.480;2023-07-02T09:00:09;100863.47;;;37.23
63689;BMP280;54895;40.928;14.480;2023-07-02T09:02:36;100867.38;;;37.48
63689;BMP280;54895;40.928;14.480;2023-07-02T09:05:03;100861.50;;;37.10
63689;BMP280;54895;40.928;14.480;2023-07-02T09:10:52;100860.25;;;35.75
63689;BMP280;54895;40.928;14.480;2023-07-02T09:13:18;100868.59;;;34.56
63689;BMP280;54895;40.928;14.480;2023-07-02T09:15:45;100858.88;;;34.37
63689;BMP280;54895;40.928;14.480;2023-07-02T09:18:20;100868.63;;;35.09
63689;BMP280;54895;40.928;14.480;2023-07-02T09:20:58;100867.38;;;36.70
63689;BMP280;54895;40.928;14.480;2023-07-02T09:23:34;100873.75;;;36.54
63689;BMP280;54895;40.928;14.480;2023-07-02T09:26:05;100874.16;;;37.61
63689;BMP280;54895;40.928;14.480;2023-07-02T09:28:33;100863.44;;;37.27
63689;BMP280;54895;40.928;14.480;2023-07-02T09:31:04;100858.94;;;37.58
63689;BMP280;54895;40.928;14.480;2023-07-02T09:33:31;100866.94;;;37.86
63689;BMP280;54895;40.928;14.480;2023-07-02T09:35:58;100867.75;;;38.28
63689;BMP280;54895;40.928;14.480;2023-07-02T09:38:25;100869.41;;;38.07
63689;BMP280;54895;40.928;14.480;2023-07-02T09:40:55;100870.47;;;37.80
63689;BMP280;54895;40.928;14.480;2023-07-02T09:43:24;100873.31;;;37.74
63689;BMP280;54895;40.928;14.480;2023-07-02T09:45:52;100874.00;;;38.27
63689;BMP280;54895;40.928;14.480;2023-07-02T09:48:20;100883.25;;;39.02
63689;BMP280;54895;40.928;14.480;2023-07-02T09:50:49;100877.16;;;39.30
63689;BMP280;54895;40.928;14.480;2023-07-02T09:53:18;100881.66;;;39.83
63689;BMP280;54895;40.928;14.480;2023-07-02T09:55:45;100886.69;;;40.07
63689;BMP280;54895;40.928;14.480;2023-07-02T09:58:11;100879.75;;;40.06
63689;BMP280;54895;40.928;14.480;2023-07-02T10:00:38;100877.63;;;36.93
63689;BMP280;54895;40.928;14.480;2023-07-02T10:03:05;100882.47;;;35.09
63689;BMP280;54895;40.928;14.480;2023-07-02T10:05:33;100876.94;;;35.53
63689;BMP280;54895;40.928;14.480;2023-07-02T10:08:12;100883.50;;;36.45
63689;BMP280;54895;40.928;14.480;2023-07-02T10:10:39;100878.97;;;36.94
63689;BMP280;54895;40.928;14.480;2023-07-02T10:13:05;100884.94;;;37.26
63689;BMP280;54895;40.928;14.480;2023-07-02T10:15:32;100881.63;;;37.08
63689;BMP280;54895;40.928;14.480;2023-07-02T10:18:03;100882.22;;;36.27
63689;BMP280;54895;40.928;14.480;2023-07-02T10:23:41;100877.41;;;36.19
63689;BMP280;54895;40.928;14.480;2023-07-02T10:26:16;100891.06;;;36.53
63689;BMP280;54895;40.928;14.480;2023-07-02T10:29:18;100877.50;;;37.05
63689;BMP280;54895;40.928;14.480;2023-07-02T10:31:57;100889.34;;;38.26
63689;BMP280;54895;40.928;14.480;2023-07-02T10:34:35;100880.66;;;37.99
63689;BMP280;54895;40.928;14.480;2023-07-02T10:37:02;100887.69;;;38.85
63689;BMP280;54895;40.928;14.480;2023-07-02T10:39:38;100884.16;;;36.52
63689;BMP280;54895;40.928;14.480;2023-07-02T10:42:08;100880.97;;;36.00
63689;BMP280;54895;40.928;14.480;2023-07-02T10:45:06;100892.19;;;35.08
63689;BMP280;54895;40.928;14.480;2023-07-02T10:47:33;100893.44;;;35.95
63689;BMP280;54895;40.928;14.480;2023-07-02T10:50:19;100891.38;;;35.87
63689;BMP280;54895;40.928;14.480;2023-07-02T10:52:48;100884.53;;;35.63
63689;BMP280;54895;40.928;14.480;2023-07-02T10:55:25;100888.69;;;35.38
63689;BMP280;54895;40.928;14.480;2023-07-02T10:58:06;100888.66;;;35.69
63689;BMP280;54895;40.928;14.480;2023-07-02T11:00:48;100887.78;;;36.19
63689;BMP280;54895;40.928;14.480;2023-07-02T11:03:24;100888.13;;;36.81
63689;BMP280;54895;40.928;14.480;2023-07-02T11:05:52;100888.91;;;36.69
63689;BMP280;54895;40.928;14.480;2023-07-02T11:08:19;100881.91;;;36.72
63689;BMP280;54895;40.928;14.480;2023-07-02T11:10:50;100862.44;;;37.54
63689;BMP280;54895;40.928;14.480;2023-07-02T11:13:19;100876.31;;;38.61
63689;BMP280;54895;40.928;14.480;2023-07-02T11:15:46;100882.03;;;38.49
63689;BMP280;54895;40.928;14.480;2023-07-02T11:18:14;100871.91;;;37.13
63689;BMP280;54895;40.928;14.480;2023-07-02T11:23:34;100891.69;;;37.47
63689;BMP280;54895;40.928;14.480;2023-07-02T11:26:02;100893.78;;;38.53
63689;BMP280;54895;40.928;14.480;2023-07-02T11:28:30;100889.59;;;38.06
63689;BMP280;54895;40.928;14.480;2023-07-02T11:30:58;100884.91;;;36.41
63689;BMP280;54895;40.928;14.480;2023-07-02T11:33:38;100878.28;;;36.94
63689;BMP280;54895;40.928;14.480;2023-07-02T11:36:06;100887.50;;;37.48
63689;BMP280;54895;40.928;14.480;2023-07-02T11:38:36;100894.09;;;37.81
63689;BMP280;54895;40.928;14.480;2023-07-02T11:41:03;100895.47;;;38.34
63689;BMP280;54895;40.928;14.480;2023-07-02T11:43:30;100903.47;;;37.48
63689;BMP280;54895;40.928;14.480;2023-07-02T11:45:56;100891.56;;;38.15
63689;BMP280;54895;40.928;14.480;2023-07-02T11:48:23;100892.34;;;37.50
63689;BMP280;54895;40.928;14.480;2023-07-02T11:50:49;100901.06;;;37.08
63689;BMP280;54895;40.928;14.480;2023-07-02T11:53:15;100895.28;;;37.34
63689;BMP280;54895;40.928;14.480;2023-07-02T11:55:42;100893.00;;;38.12
63689;BMP280;54895;40.928;14.480;2023-07-02T11:58:08;100895.44;;;38.36
63689;BMP280;54895;40.928;14.480;2023-07-02T12:00:34;100898.56;;;38.12
63689;BMP280;54895;40.928;14.480;2023-07-02T12:03:01;100890.44;;;37.94
63689;BMP280;54895;40.928;14.480;2023-07-02T12:05:27;100892.28;;;38.14
63689;BMP280;54895;40.928;14.480;2023-07-02T12:07:53;100884.19;;;38.44
63689;BMP280;54895;40.928;14.480;2023-07-02T12:10:21;100890.00;;;38.26
63689;BMP280;54895;40.928;14.480;2023-07-02T12:12:47;100892.53;;;38.88
63689;BMP280;54895;40.928;14.480;2023-07-02T12:15:13;100888.34;;;39.28
63689;BMP280;54895;40.928;14.480;2023-07-02T12:17:40;100894.59;;;38.90
63689;BMP280;54895;40.928;14.480;2023-07-02T12:20:06;100899.22;;;38.61
63689;BMP280;54895;40.928;14.480;2023-07-02T12:22:33;100899.16;;;39.45
63689;BMP280;54895;40.928;14.480;2023-07-02T12:24:59;100896.22;;;39.51
63689;BMP280;54895;40.928;14.480;2023-07-02T12:27:25;100900.69;;;39.38
63689;BMP280;54895;40.928;14.480;2023-07-02T12:29:53;100891.09;;;38.91
63689;BMP280;54895;40.928;14.480;2023-07-02T12:32:20;100902.94;;;38.90
63689;BMP280;54895;40.928;14.480;2023-07-02T12:34:47;100900.00;;;38.98
63689;BMP280;54895;40.928;14.480;2023-07-02T12:37:13;100898.91;;;39.57
63689;BMP280;54895;40.928;14.480;2023-07-02T12:39:43;100902.00;;;39.41
63689;BMP280;54895;40.928;14.480;2023-07-02T12:42:09;100902.00;;;39.41
63689;BMP280;54895;40.928;14.480;2023-07-02T12:44:36;100901.47;;;38.95
63689;BMP280;54895;40.928;14.480;2023-07-02T12:47:03;100903.84;;;39.53
63689;BMP280;54895;40.928;14.480;2023-07-02T12:49:29;100898.19;;;39.21
63689;BMP280;54895;40.928;14.480;2023-07-02T12:51:56;100900.22;;;38.86
63689;BMP280;54895;40.928;14.480;2023-07-02T12:54:22;100898.72;;;38.91
63689;BMP280;54895;40.928;14.480;2023-07-02T12:56:49;100900.06;;;38.94
63689;BMP280;54895;40.928;14.480;2023-07-02T12:59:15;100890.66;;;39.51
63689;BMP280;54895;40.928;14.480;2023-07-02T13:01:42;100891.09;;;38.91
63689;BMP280;54895;40.928;14.480;2023-07-02T13:04:10;100884.53;;;38.66
63689;BMP280;54895;40.928;14.480;2023-07-02T13:06:37;100894.84;;;38.74
63689;BMP280;54895;40.928;14.480;2023-07-02T13:09:07;100892.44;;;38.52
63689;BMP280;54895;40.928;14.480;2023-07-02T13:11:33;100896.25;;;39.84
63689;BMP280;54895;40.928;14.480;2023-07-02T13:14:00;100892.50;;;39.63
63689;BMP280;54895;40.928;14.480;2023-07-02T13:16:27;100895.09;;;39.73
63689;BMP280;54895;40.928;14.480;2023-07-02T13:18:53;100886.97;;;38.44
63689;BMP280;54895;40.928;14.480;2023-07-02T13:21:23;100883.31;;;38.98
63689;BMP280;54895;40.928;14.480;2023-07-02T13:23:50;100883.78;;;39.46
63689;BMP280;54895;40.928;14.480;2023-07-02T13:26:20;100888.59;;;39.14
63689;BMP280;54895;40.928;14.480;2023-07-02T13:28:47;100887.50;;;39.69
63689;BMP280;54895;40.928;14.480;2023-07-02T13:31:15;100869.91;;;39.44
63689;BMP280;54895;40.928;14.480;2023-07-02T13:33:43;100875.63;;;38.12
63689;BMP280;54895;40.928;14.480;2023-07-02T13:36:10;100881.03;;;37.68
63689;BMP280;54895;40.928;14.480;2023-07-02T13:38:38;100882.66;;;38.05
63689;BMP280;54895;40.928;14.480;2023-07-02T13:41:05;100876.34;;;38.10
63689;BMP280;54895;40.928;14.480;2023-07-02T13:43:33;100877.75;;;38.09
63689;BMP280;54895;40.928;14.480;2023-07-02T13:46:00;100870.91;;;37.98
63689;BMP280;54895;40.928;14.480;2023-07-02T13:48:28;100869.75;;;37.82
63689;BMP280;54895;40.928;14.480;2023-07-02T13:50:55;100871.22;;;36.09
63689;BMP280;54895;40.928;14.480;2023-07-02T13:53:23;100883.78;;;35.80
63689;BMP280;54895;40.928;14.480;2023-07-02T13:55:50;100887.31;;;35.33
63689;BMP280;54895;40.928;14.480;2023-07-02T13:58:18;100880.75;;;33.93
63689;BMP280;54895;40.928;14.480;2023-07-02T14:00:45;100888.03;;;35.41
63689;BMP280;54895;40.928;14.480;2023-07-02T14:03:13;100892.13;;;35.74
63689;BMP280;54895;40.928;14.480;2023-07-02T14:05:41;100883.34;;;36.69
63689;BMP280;54895;40.928;14.480;2023-07-02T14:08:09;100893.09;;;36.60
63689;BMP280;54895;40.928;14.480;2023-07-02T14:10:37;100886.06;;;36.77
63689;BMP280;54895;40.928;14.480;2023-07-02T14:13:04;100890.09;;;36.94
63689;BMP280;54895;40.928;14.480;2023-07-02T14:15:32;100884.63;;;38.14
63689;BMP280;54895;40.928;14.480;2023-07-02T14:17:59;100877.09;;;38.53
63689;BMP280;54895;40.928;14.480;2023-07-02T14:23:38;100876.72;;;37.81
63689;BMP280;54895;40.928;14.480;2023-07-02T14:26:05;100896.56;;;38.95
63689;BMP280;54895;40.928;14.480;2023-07-02T14:28:31;100892.03;;;37.78
63689;BMP280;54895;40.928;14.480;2023-07-02T14:30:59;100901.75;;;38.31
63689;BMP280;54895;40.928;14.480;2023-07-02T14:33:27;100891.31;;;38.31
63689;BMP280;54895;40.928;14.480;2023-07-02T14:35:53;100898.38;;;39.13
63689;BMP280;54895;40.928;14.480;2023-07-02T14:38:20;100882.25;;;39.55